aviador You're here:

KSBP Decoded Metar

SAN LUIS OBISPO in CA, USA
Report Time2017-08-24 00:56:00
UTC Time2017-08-24 01:07:35
Flight Rules vfr VFR
Wind310° at 13 kt
W.Decomp.*RWY 29: 13.0 kt HW 1.1 kt RCW
RWY 25: 9.2 kt HW 9.2 kt RCW
W.Rank310° ranks 1
Current wind is above 310° avg. (10.4)
Visibility9999 m
Phenomena:N/A
Clouds:N/A
Expected CloudBase > 2,000 ft AGL from Temp-Dew spread
CeilingNone
Temp19°C (ISA +4)
Dew Point14°C (73% RH)
AAT15.6°C
QNH1014 hPa
Density Alt889 ft
Elevation194 ft
Report Wrong Elevation
Raw Report
KSBP 240056Z 31013KT 10SM CLR 19/14 A2993 RMK AO2 SLP132
T01940144=

Extra information for KSBP:More info

Metar Taf Metar & Taf Last 4 Metars F.Rules Stats Wind Profile Meteogram Temp Stats Airport Information Weather charts Add Link Nearby VenuesMetar ALERT Operation Metar Decoded Social comments

AIRNAV info for KSBP